sensor_id;sensor_type;location;lat;lon;timestamp;P1;durP1;ratioP1;P2;durP2;ratioP2
1577;SDS011;57623;53.608;10.004;2022-11-15T00:00:07;28.37;;;22.40;;
1577;SDS011;57623;53.608;10.004;2022-11-15T00:03:05;29.13;;;22.80;;
1577;SDS011;57623;53.608;10.004;2022-11-15T00:06:00;27.97;;;22.60;;
1577;SDS011;57623;53.608;10.004;2022-11-15T00:08:50;28.07;;;21.17;;
1577;SDS011;57623;53.608;10.004;2022-11-15T00:11:43;30.67;;;22.63;;
1577;SDS011;57623;53.608;10.004;2022-11-15T00:14:34;28.50;;;24.10;;
1577;SDS011;57623;53.608;10.004;2022-11-15T00:17:25;29.90;;;22.63;;
1577;SDS011;57623;53.608;10.004;2022-11-15T00:20:14;29.73;;;21.73;;
1577;SDS011;57623;53.608;10.004;2022-11-15T00:23:08;26.27;;;21.40;;
1577;SDS011;57623;53.608;10.004;2022-11-15T00:26:03;26.73;;;21.50;;
1577;SDS011;57623;53.608;10.004;2022-11-15T00:29:00;31.30;;;23.23;;
1577;SDS011;57623;53.608;10.004;2022-11-15T00:31:50;29.43;;;22.87;;
1577;SDS011;57623;53.608;10.004;2022-11-15T00:34:44;28.50;;;22.83;;
1577;SDS011;57623;53.608;10.004;2022-11-15T00:37:34;29.50;;;23.00;;
1577;SDS011;57623;53.608;10.004;2022-11-15T00:40:30;29.70;;;21.70;;
1577;SDS011;57623;53.608;10.004;2022-11-15T00:43:20;30.37;;;22.13;;
1577;SDS011;57623;53.608;10.004;2022-11-15T00:46:13;27.93;;;22.40;;
1577;SDS011;57623;53.608;10.004;2022-11-15T00:49:05;28.87;;;22.43;;
1577;SDS011;57623;53.608;10.004;2022-11-15T00:51:56;27.03;;;21.03;;
1577;SDS011;57623;53.608;10.004;2022-11-15T00:54:44;28.20;;;22.03;;
1577;SDS011;57623;53.608;10.004;2022-11-15T00:57:38;29.70;;;21.97;;
1577;SDS011;57623;53.608;10.004;2022-11-15T01:00:34;26.30;;;22.27;;
1577;SDS011;57623;53.608;10.004;2022-11-15T01:03:27;27.77;;;20.90;;
1577;SDS011;57623;53.608;10.004;2022-11-15T01:06:21;30.70;;;22.50;;
1577;SDS011;57623;53.608;10.004;2022-11-15T01:09:09;30.50;;;22.30;;
1577;SDS011;57623;53.608;10.004;2022-11-15T01:12:01;30.43;;;22.50;;
1577;SDS011;57623;53.608;10.004;2022-11-15T01:14:53;28.80;;;21.73;;
1577;SDS011;57623;53.608;10.004;2022-11-15T01:17:49;24.23;;;20.30;;
1577;SDS011;57623;53.608;10.004;2022-11-15T01:20:44;27.63;;;21.23;;
1577;SDS011;57623;53.608;10.004;2022-11-15T01:23:35;28.50;;;20.57;;
1577;SDS011;57623;53.608;10.004;2022-11-15T01:26:27;27.17;;;20.87;;
1577;SDS011;57623;53.608;10.004;2022-11-15T01:29:23;25.67;;;20.70;;
1577;SDS011;57623;53.608;10.004;2022-11-15T01:32:13;26.97;;;22.00;;
1577;SDS011;57623;53.608;10.004;2022-11-15T01:35:08;28.87;;;21.50;;
1577;SDS011;57623;53.608;10.004;2022-11-15T01:38:03;25.83;;;21.50;;
1577;SDS011;57623;53.608;10.004;2022-11-15T01:40:56;28.70;;;21.70;;
1577;SDS011;57623;53.608;10.004;2022-11-15T01:43:46;28.47;;;20.83;;
1577;SDS011;57623;53.608;10.004;2022-11-15T01:46:35;27.83;;;22.27;;
1577;SDS011;57623;53.608;10.004;2022-11-15T01:49:25;26.17;;;21.97;;
1577;SDS011;57623;53.608;10.004;2022-11-15T01:52:20;27.03;;;21.40;;
1577;SDS011;57623;53.608;10.004;2022-11-15T01:55:15;29.67;;;22.23;;
1577;SDS011;57623;53.608;10.004;2022-11-15T01:58:06;26.10;;;20.40;;
1577;SDS011;57623;53.608;10.004;2022-11-15T02:00:57;26.20;;;21.47;;
1577;SDS011;57623;53.608;10.004;2022-11-15T02:03:49;27.33;;;20.37;;
1577;SDS011;57623;53.608;10.004;2022-11-15T02:06:45;26.70;;;21.47;;
1577;SDS011;57623;53.608;10.004;2022-11-15T02:09:35;26.03;;;20.43;;
1577;SDS011;57623;53.608;10.004;2022-11-15T02:12:30;23.07;;;19.30;;
1577;SDS011;57623;53.608;10.004;2022-11-15T02:15:19;24.50;;;19.90;;
1577;SDS011;57623;53.608;10.004;2022-11-15T02:18:21;22.83;;;19.50;;
1577;SDS011;57623;53.608;10.004;2022-11-15T02:21:15;25.50;;;19.97;;
1577;SDS011;57623;53.608;10.004;2022-11-15T02:24:17;25.17;;;20.60;;
1577;SDS011;57623;53.608;10.004;2022-11-15T02:27:34;24.77;;;20.73;;
1577;SDS011;57623;53.608;10.004;2022-11-15T02:30:31;26.50;;;20.97;;
1577;SDS011;57623;53.608;10.004;2022-11-15T02:33:30;23.43;;;19.50;;
1577;SDS011;57623;53.608;10.004;2022-11-15T02:36:24;23.90;;;19.63;;
1577;SDS011;57623;53.608;10.004;2022-11-15T02:39:20;25.20;;;19.83;;
1577;SDS011;57623;53.608;10.004;2022-11-15T02:42:13;24.07;;;19.83;;
1577;SDS011;57623;53.608;10.004;2022-11-15T02:45:20;25.93;;;20.20;;
1577;SDS011;57623;53.608;10.004;2022-11-15T02:48:11;25.60;;;20.07;;
1577;SDS011;57623;53.608;10.004;2022-11-15T02:51:00;26.30;;;19.47;;
1577;SDS011;57623;53.608;10.004;2022-11-15T02:53:57;24.37;;;19.70;;
1577;SDS011;57623;53.608;10.004;2022-11-15T02:56:53;25.30;;;20.00;;
1577;SDS011;57623;53.608;10.004;2022-11-15T02:59:57;22.10;;;18.47;;
1577;SDS011;57623;53.608;10.004;2022-11-15T03:06:00;21.97;;;18.37;;
1577;SDS011;57623;53.608;10.004;2022-11-15T03:09:04;21.77;;;18.77;;
1577;SDS011;57623;53.608;10.004;2022-11-15T03:12:03;25.17;;;19.27;;
1577;SDS011;57623;53.608;10.004;2022-11-15T03:15:09;24.73;;;20.13;;
1577;SDS011;57623;53.608;10.004;2022-11-15T03:18:10;21.67;;;18.40;;
1577;SDS011;57623;53.608;10.004;2022-11-15T03:21:03;25.03;;;19.80;;
1577;SDS011;57623;53.608;10.004;2022-11-15T03:23:57;25.50;;;19.43;;
1577;SDS011;57623;53.608;10.004;2022-11-15T03:26:54;23.40;;;18.57;;
1577;SDS011;57623;53.608;10.004;2022-11-15T03:29:44;25.23;;;19.00;;
1577;SDS011;57623;53.608;10.004;2022-11-15T03:32:42;23.80;;;18.40;;
1577;SDS011;57623;53.608;10.004;2022-11-15T03:35:32;24.37;;;19.10;;
1577;SDS011;57623;53.608;10.004;2022-11-15T03:38:25;20.17;;;16.73;;
1577;SDS011;57623;53.608;10.004;2022-11-15T03:41:17;22.70;;;18.67;;
1577;SDS011;57623;53.608;10.004;2022-11-15T03:44:15;21.70;;;18.40;;
1577;SDS011;57623;53.608;10.004;2022-11-15T03:47:09;22.73;;;17.60;;
1577;SDS011;57623;53.608;10.004;2022-11-15T03:50:04;24.73;;;18.57;;
1577;SDS011;57623;53.608;10.004;2022-11-15T03:53:00;22.53;;;17.43;;
1577;SDS011;57623;53.608;10.004;2022-11-15T03:55:56;20.33;;;17.17;;
1577;SDS011;57623;53.608;10.004;2022-11-15T03:58:45;22.30;;;17.80;;
1577;SDS011;57623;53.608;10.004;2022-11-15T04:01:33;22.93;;;17.70;;
1577;SDS011;57623;53.608;10.004;2022-11-15T04:04:25;22.00;;;16.57;;
1577;SDS011;57623;53.608;10.004;2022-11-15T04:07:17;20.13;;;16.60;;
1577;SDS011;57623;53.608;10.004;2022-11-15T04:10:13;19.33;;;16.90;;
1577;SDS011;57623;53.608;10.004;2022-11-15T04:13:07;22.27;;;17.93;;
1577;SDS011;57623;53.608;10.004;2022-11-15T04:16:02;18.37;;;15.97;;
1577;SDS011;57623;53.608;10.004;2022-11-15T04:18:57;19.63;;;17.07;;
1577;SDS011;57623;53.608;10.004;2022-11-15T04:22:09;18.70;;;15.50;;
1577;SDS011;57623;53.608;10.004;2022-11-15T04:25:27;20.50;;;17.30;;
1577;SDS011;57623;53.608;10.004;2022-11-15T04:28:20;22.33;;;16.77;;
1577;SDS011;57623;53.608;10.004;2022-11-15T04:31:08;19.63;;;16.53;;
1577;SDS011;57623;53.608;10.004;2022-11-15T04:34:02;20.53;;;17.17;;
1577;SDS011;57623;53.608;10.004;2022-11-15T04:36:56;21.03;;;16.80;;
1577;SDS011;57623;53.608;10.004;2022-11-15T04:40:05;21.00;;;16.90;;
1577;SDS011;57623;53.608;10.004;2022-11-15T04:43:07;17.90;;;15.60;;
1577;SDS011;57623;53.608;10.004;2022-11-15T04:46:00;22.13;;;16.20;;
1577;SDS011;57623;53.608;10.004;2022-11-15T04:48:48;20.07;;;17.50;;
1577;SDS011;57623;53.608;10.004;2022-11-15T04:51:44;20.97;;;17.40;;
1577;SDS011;57623;53.608;10.004;2022-11-15T04:54:36;18.30;;;15.90;;
1577;SDS011;57623;53.608;10.004;2022-11-15T04:57:34;18.90;;;16.17;;
1577;SDS011;57623;53.608;10.004;2022-11-15T05:00:34;20.17;;;16.43;;
1577;SDS011;57623;53.608;10.004;2022-11-15T05:03:29;20.20;;;16.70;;
1577;SDS011;57623;53.608;10.004;2022-11-15T05:06:37;19.97;;;16.77;;
1577;SDS011;57623;53.608;10.004;2022-11-15T05:09:29;20.33;;;16.83;;
1577;SDS011;57623;53.608;10.004;2022-11-15T05:12:17;19.97;;;16.90;;
1577;SDS011;57623;53.608;10.004;2022-11-15T05:15:12;21.40;;;17.60;;
1577;SDS011;57623;53.608;10.004;2022-11-15T05:18:06;22.30;;;18.03;;
1577;SDS011;57623;53.608;10.004;2022-11-15T05:20:56;19.13;;;16.37;;
1577;SDS011;57623;53.608;10.004;2022-11-15T05:23:56;18.77;;;16.17;;
1577;SDS011;57623;53.608;10.004;2022-11-15T05:26:46;18.60;;;15.83;;
1577;SDS011;57623;53.608;10.004;2022-11-15T05:29:38;19.40;;;16.53;;
1577;SDS011;57623;53.608;10.004;2022-11-15T05:32:40;20.20;;;16.27;;
1577;SDS011;57623;53.608;10.004;2022-11-15T05:35:33;17.70;;;15.20;;
1577;SDS011;57623;53.608;10.004;2022-11-15T05:38:29;16.50;;;14.70;;
1577;SDS011;57623;53.608;10.004;2022-11-15T05:41:23;20.37;;;17.07;;
1577;SDS011;57623;53.608;10.004;2022-11-15T05:44:16;23.60;;;16.23;;
1577;SDS011;57623;53.608;10.004;2022-11-15T05:47:06;18.23;;;15.20;;
1577;SDS011;57623;53.608;10.004;2022-11-15T05:49:59;18.87;;;16.07;;
1577;SDS011;57623;53.608;10.004;2022-11-15T05:52:51;18.70;;;15.90;;
1577;SDS011;57623;53.608;10.004;2022-11-15T05:55:52;19.03;;;15.80;;
1577;SDS011;57623;53.608;10.004;2022-11-15T05:58:43;20.93;;;16.03;;
1577;SDS011;57623;53.608;10.004;2022-11-15T06:01:44;21.87;;;16.10;;
1577;SDS011;57623;53.608;10.004;2022-11-15T06:04:33;19.97;;;15.67;;
1577;SDS011;57623;53.608;10.004;2022-11-15T06:07:32;19.60;;;16.30;;
1577;SDS011;57623;53.608;10.004;2022-11-15T06:10:23;18.57;;;16.33;;
1577;SDS011;57623;53.608;10.004;2022-11-15T06:13:15;20.40;;;16.03;;
1577;SDS011;57623;53.608;10.004;2022-11-15T06:16:04;20.20;;;17.40;;
1577;SDS011;57623;53.608;10.004;2022-11-15T06:18:59;20.80;;;16.20;;
1577;SDS011;57623;53.608;10.004;2022-11-15T06:21:52;19.37;;;15.67;;
1577;SDS011;57623;53.608;10.004;2022-11-15T06:24:40;19.17;;;14.97;;
1577;SDS011;57623;53.608;10.004;2022-11-15T06:27:33;18.47;;;14.87;;
1577;SDS011;57623;53.608;10.004;2022-11-15T06:30:30;18.83;;;16.10;;
1577;SDS011;57623;53.608;10.004;2022-11-15T06:33:23;22.93;;;16.73;;
1577;SDS011;57623;53.608;10.004;2022-11-15T06:36:20;18.07;;;15.70;;
1577;SDS011;57623;53.608;10.004;2022-11-15T06:39:15;19.47;;;16.30;;
1577;SDS011;57623;53.608;10.004;2022-11-15T06:42:15;18.47;;;16.30;;
1577;SDS011;57623;53.608;10.004;2022-11-15T06:45:06;20.27;;;17.33;;
1577;SDS011;57623;53.608;10.004;2022-11-15T06:47:58;19.40;;;16.20;;
1577;SDS011;57623;53.608;10.004;2022-11-15T06:50:51;21.80;;;17.03;;
1577;SDS011;57623;53.608;10.004;2022-11-15T06:53:47;18.30;;;15.77;;
1577;SDS011;57623;53.608;10.004;2022-11-15T06:56:40;18.60;;;15.70;;
1577;SDS011;57623;53.608;10.004;2022-11-15T06:59:35;20.90;;;17.10;;
1577;SDS011;57623;53.608;10.004;2022-11-15T07:02:28;19.90;;;16.60;;
1577;SDS011;57623;53.608;10.004;2022-11-15T07:05:26;20.03;;;16.47;;
1577;SDS011;57623;53.608;10.004;2022-11-15T07:08:16;19.17;;;15.70;;
1577;SDS011;57623;53.608;10.004;2022-11-15T07:11:05;18.60;;;15.87;;
1577;SDS011;57623;53.608;10.004;2022-11-15T07:13:57;19.83;;;16.37;;
1577;SDS011;57623;53.608;10.004;2022-11-15T07:16:48;18.23;;;15.00;;
1577;SDS011;57623;53.608;10.004;2022-11-15T07:19:52;17.70;;;15.63;;
1577;SDS011;57623;53.608;10.004;2022-11-15T07:22:44;21.20;;;16.57;;
1577;SDS011;57623;53.608;10.004;2022-11-15T07:25:34;20.73;;;16.30;;
1577;SDS011;57623;53.608;10.004;2022-11-15T07:28:26;22.70;;;17.50;;
1577;SDS011;57623;53.608;10.004;2022-11-15T07:31:17;18.90;;;16.77;;
1577;SDS011;57623;53.608;10.004;2022-11-15T07:34:08;20.37;;;16.63;;
1577;SDS011;57623;53.608;10.004;2022-11-15T07:37:04;18.80;;;16.63;;
1577;SDS011;57623;53.608;10.004;2022-11-15T07:39:54;16.30;;;14.63;;
1577;SDS011;57623;53.608;10.004;2022-11-15T07:42:44;20.00;;;16.67;;
1577;SDS011;57623;53.608;10.004;2022-11-15T07:45:44;20.03;;;16.73;;
1577;SDS011;57623;53.608;10.004;2022-11-15T07:48:41;19.23;;;16.10;;
1577;SDS011;57623;53.608;10.004;2022-11-15T07:51:33;17.60;;;15.70;;
1577;SDS011;57623;53.608;10.004;2022-11-15T07:54:26;20.07;;;17.17;;
1577;SDS011;57623;53.608;10.004;2022-11-15T07:57:21;19.10;;;16.47;;
1577;SDS011;57623;53.608;10.004;2022-11-15T08:00:13;23.37;;;17.20;;
1577;SDS011;57623;53.608;10.004;2022-11-15T08:03:08;23.57;;;18.63;;
1577;SDS011;57623;53.608;10.004;2022-11-15T08:05:59;22.90;;;15.70;;
1577;SDS011;57623;53.608;10.004;2022-11-15T08:08:54;19.00;;;16.73;;
1577;SDS011;57623;53.608;10.004;2022-11-15T08:11:43;20.00;;;16.80;;
1577;SDS011;57623;53.608;10.004;2022-11-15T08:14:32;20.83;;;16.60;;
1577;SDS011;57623;53.608;10.004;2022-11-15T08:17:21;19.07;;;16.20;;
1577;SDS011;57623;53.608;10.004;2022-11-15T08:20:13;18.20;;;15.70;;
1577;SDS011;57623;53.608;10.004;2022-11-15T08:23:03;18.80;;;16.80;;
1577;SDS011;57623;53.608;10.004;2022-11-15T08:26:01;19.40;;;16.87;;
1577;SDS011;57623;53.608;10.004;2022-11-15T08:28:54;20.30;;;17.13;;
1577;SDS011;57623;53.608;10.004;2022-11-15T08:31:44;20.97;;;17.13;;
1577;SDS011;57623;53.608;10.004;2022-11-15T08:34:33;19.30;;;16.27;;
1577;SDS011;57623;53.608;10.004;2022-11-15T08:37:25;20.70;;;16.73;;
1577;SDS011;57623;53.608;10.004;2022-11-15T08:40:16;21.70;;;16.93;;
1577;SDS011;57623;53.608;10.004;2022-11-15T08:43:07;19.33;;;16.27;;
1577;SDS011;57623;53.608;10.004;2022-11-15T08:45:58;21.83;;;17.33;;
1577;SDS011;57623;53.608;10.004;2022-11-15T08:49:01;20.87;;;16.90;;
1577;SDS011;57623;53.608;10.004;2022-11-15T08:51:52;21.00;;;17.00;;
1577;SDS011;57623;53.608;10.004;2022-11-15T08:54:41;20.33;;;16.23;;
1577;SDS011;57623;53.608;10.004;2022-11-15T08:57:30;25.57;;;16.97;;
1577;SDS011;57623;53.608;10.004;2022-11-15T09:00:27;19.60;;;16.57;;
1577;SDS011;57623;53.608;10.004;2022-11-15T09:03:19;19.97;;;16.73;;
1577;SDS011;57623;53.608;10.004;2022-11-15T09:06:09;22.67;;;17.40;;
1577;SDS011;57623;53.608;10.004;2022-11-15T09:08:59;17.80;;;15.90;;
1577;SDS011;57623;53.608;10.004;2022-11-15T09:11:51;19.77;;;16.53;;
1577;SDS011;57623;53.608;10.004;2022-11-15T09:14:48;18.80;;;16.80;;
1577;SDS011;57623;53.608;10.004;2022-11-15T09:17:41;20.30;;;17.20;;
1577;SDS011;57623;53.608;10.004;2022-11-15T09:20:31;18.53;;;16.27;;
1577;SDS011;57623;53.608;10.004;2022-11-15T09:23:22;18.70;;;16.70;;
1577;SDS011;57623;53.608;10.004;2022-11-15T09:26:12;20.20;;;16.00;;
1577;SDS011;57623;53.608;10.004;2022-11-15T09:29:08;17.77;;;15.90;;
1577;SDS011;57623;53.608;10.004;2022-11-15T09:31:59;20.67;;;17.17;;
1577;SDS011;57623;53.608;10.004;2022-11-15T09:35:04;23.60;;;16.90;;
1577;SDS011;57623;53.608;10.004;2022-11-15T09:37:58;18.10;;;15.90;;
1577;SDS011;57623;53.608;10.004;2022-11-15T09:40:57;17.70;;;15.50;;
1577;SDS011;57623;53.608;10.004;2022-11-15T09:43:49;19.43;;;16.47;;
1577;SDS011;57623;53.608;10.004;2022-11-15T09:46:49;18.93;;;15.90;;
1577;SDS011;57623;53.608;10.004;2022-11-15T09:49:40;18.73;;;15.73;;
1577;SDS011;57623;53.608;10.004;2022-11-15T09:52:33;19.70;;;15.97;;
1577;SDS011;57623;53.608;10.004;2022-11-15T09:55:24;16.97;;;14.87;;
1577;SDS011;57623;53.608;10.004;2022-11-15T09:58:23;19.37;;;15.80;;
1577;SDS011;57623;53.608;10.004;2022-11-15T10:01:19;17.67;;;15.47;;
1577;SDS011;57623;53.608;10.004;2022-11-15T10:04:16;19.37;;;16.03;;
1577;SDS011;57623;53.608;10.004;2022-11-15T10:07:12;18.83;;;16.83;;
1577;SDS011;57623;53.608;10.004;2022-11-15T10:10:04;19.10;;;15.73;;
1577;SDS011;57623;53.608;10.004;2022-11-15T10:12:58;18.57;;;16.37;;
1577;SDS011;57623;53.608;10.004;2022-11-15T10:15:59;19.90;;;15.90;;
1577;SDS011;57623;53.608;10.004;2022-11-15T10:18:54;18.33;;;15.97;;
1577;SDS011;57623;53.608;10.004;2022-11-15T10:21:46;17.67;;;15.87;;
1577;SDS011;57623;53.608;10.004;2022-11-15T10:24:39;17.80;;;15.90;;
1577;SDS011;57623;53.608;10.004;2022-11-15T10:27:35;16.40;;;14.40;;
1577;SDS011;57623;53.608;10.004;2022-11-15T10:30:32;18.40;;;15.00;;
1577;SDS011;57623;53.608;10.004;2022-11-15T10:33:29;15.67;;;14.07;;
1577;SDS011;57623;53.608;10.004;2022-11-15T10:36:20;16.50;;;14.77;;
1577;SDS011;57623;53.608;10.004;2022-11-15T10:39:21;17.73;;;15.83;;
1577;SDS011;57623;53.608;10.004;2022-11-15T10:42:16;19.70;;;14.80;;
1577;SDS011;57623;53.608;10.004;2022-11-15T10:45:09;16.23;;;14.53;;
1577;SDS011;57623;53.608;10.004;2022-11-15T10:48:20;18.97;;;15.20;;
1577;SDS011;57623;53.608;10.004;2022-11-15T10:51:18;16.53;;;14.73;;
1577;SDS011;57623;53.608;10.004;2022-11-15T10:54:09;17.13;;;15.33;;
1577;SDS011;57623;53.608;10.004;2022-11-15T10:57:10;16.43;;;14.30;;
1577;SDS011;57623;53.608;10.004;2022-11-15T11:00:05;16.50;;;14.80;;
1577;SDS011;57623;53.608;10.004;2022-11-15T11:02:56;16.87;;;14.97;;
1577;SDS011;57623;53.608;10.004;2022-11-15T11:05:52;16.50;;;13.53;;
1577;SDS011;57623;53.608;10.004;2022-11-15T11:08:57;15.40;;;13.33;;
1577;SDS011;57623;53.608;10.004;2022-11-15T11:11:46;13.93;;;12.00;;
1577;SDS011;57623;53.608;10.004;2022-11-15T11:14:38;16.93;;;13.83;;
1577;SDS011;57623;53.608;10.004;2022-11-15T11:17:32;14.07;;;12.63;;
1577;SDS011;57623;53.608;10.004;2022-11-15T11:20:29;15.10;;;12.40;;
1577;SDS011;57623;53.608;10.004;2022-11-15T11:23:26;14.87;;;13.37;;
1577;SDS011;57623;53.608;10.004;2022-11-15T11:26:32;13.77;;;12.00;;
1577;SDS011;57623;53.608;10.004;2022-11-15T11:29:27;13.30;;;12.00;;
1577;SDS011;57623;53.608;10.004;2022-11-15T11:32:30;14.37;;;12.80;;
1577;SDS011;57623;53.608;10.004;2022-11-15T11:35:26;12.20;;;10.63;;
1577;SDS011;57623;53.608;10.004;2022-11-15T11:38:22;17.10;;;11.97;;
1577;SDS011;57623;53.608;10.004;2022-11-15T11:41:15;13.43;;;12.10;;
1577;SDS011;57623;53.608;10.004;2022-11-15T11:44:14;13.20;;;11.90;;
1577;SDS011;57623;53.608;10.004;2022-11-15T11:47:07;13.70;;;11.30;;
1577;SDS011;57623;53.608;10.004;2022-11-15T11:50:02;12.10;;;10.83;;
1577;SDS011;57623;53.608;10.004;2022-11-15T11:52:57;15.90;;;11.50;;
1577;SDS011;57623;53.608;10.004;2022-11-15T11:55:52;12.87;;;11.57;;
1577;SDS011;57623;53.608;10.004;2022-11-15T11:58:42;13.33;;;11.93;;
1577;SDS011;57623;53.608;10.004;2022-11-15T12:01:39;13.47;;;12.10;;
1577;SDS011;57623;53.608;10.004;2022-11-15T12:04:32;12.77;;;11.40;;
1577;SDS011;57623;53.608;10.004;2022-11-15T12:07:29;15.20;;;11.87;;
1577;SDS011;57623;53.608;10.004;2022-11-15T12:10:20;13.03;;;11.73;;
1577;SDS011;57623;53.608;10.004;2022-11-15T12:13:11;16.93;;;12.03;;
1577;SDS011;57623;53.608;10.004;2022-11-15T12:16:08;13.90;;;12.50;;
1577;SDS011;57623;53.608;10.004;2022-11-15T12:19:09;12.63;;;11.50;;
1577;SDS011;57623;53.608;10.004;2022-11-15T12:22:04;13.33;;;12.00;;
1577;SDS011;57623;53.608;10.004;2022-11-15T12:25:02;15.13;;;11.43;;
1577;SDS011;57623;53.608;10.004;2022-11-15T12:27:59;12.80;;;11.50;;
1577;SDS011;57623;53.608;10.004;2022-11-15T12:30:54;12.37;;;10.10;;
1577;SDS011;57623;53.608;10.004;2022-11-15T12:33:49;11.93;;;10.73;;
1577;SDS011;57623;53.608;10.004;2022-11-15T12:36:43;15.40;;;11.60;;
1577;SDS011;57623;53.608;10.004;2022-11-15T12:43:02;11.40;;;10.17;;
1577;SDS011;57623;53.608;10.004;2022-11-15T12:45:52;12.10;;;10.70;;
1577;SDS011;57623;53.608;10.004;2022-11-15T12:48:54;11.83;;;10.70;;
1577;SDS011;57623;53.608;10.004;2022-11-15T12:54:58;11.70;;;10.50;;
1577;SDS011;57623;53.608;10.004;2022-11-15T12:57:48;12.63;;;10.20;;
1577;SDS011;57623;53.608;10.004;2022-11-15T13:00:41;11.23;;;10.03;;
1577;SDS011;57623;53.608;10.004;2022-11-15T13:03:34;11.43;;;10.33;;
1577;SDS011;57623;53.608;10.004;2022-11-15T13:06:36;11.63;;;10.27;;
1577;SDS011;57623;53.608;10.004;2022-11-15T13:12:57;11.37;;;10.17;;
1577;SDS011;57623;53.608;10.004;2022-11-15T13:15:53;12.93;;;10.43;;
1577;SDS011;57623;53.608;10.004;2022-11-15T13:18:44;11.17;;;9.97;;
1577;SDS011;57623;53.608;10.004;2022-11-15T13:21:49;11.73;;;10.63;;
1577;SDS011;57623;53.608;10.004;2022-11-15T13:24:55;12.37;;;10.70;;
1577;SDS011;57623;53.608;10.004;2022-11-15T13:27:48;12.03;;;10.80;;
1577;SDS011;57623;53.608;10.004;2022-11-15T13:30:38;11.70;;;10.50;;
1577;SDS011;57623;53.608;10.004;2022-11-15T13:33:30;11.97;;;10.80;;
1577;SDS011;57623;53.608;10.004;2022-11-15T13:36:25;11.80;;;10.60;;
1577;SDS011;57623;53.608;10.004;2022-11-15T13:39:25;11.43;;;10.23;;
1577;SDS011;57623;53.608;10.004;2022-11-15T13:42:14;11.10;;;9.00;;
1577;SDS011;57623;53.608;10.004;2022-11-15T13:45:05;11.00;;;9.90;;
1577;SDS011;57623;53.608;10.004;2022-11-15T13:47:59;11.83;;;10.47;;
1577;SDS011;57623;53.608;10.004;2022-11-15T13:50:52;12.43;;;11.30;;
1577;SDS011;57623;53.608;10.004;2022-11-15T13:53:48;11.83;;;10.73;;
1577;SDS011;57623;53.608;10.004;2022-11-15T13:56:45;12.83;;;10.93;;
1577;SDS011;57623;53.608;10.004;2022-11-15T13:59:43;10.80;;;9.70;;
1577;SDS011;57623;53.608;10.004;2022-11-15T14:02:33;11.53;;;10.53;;
1577;SDS011;57623;53.608;10.004;2022-11-15T14:05:33;11.80;;;10.60;;
1577;SDS011;57623;53.608;10.004;2022-11-15T14:08:26;13.03;;;11.40;;
1577;SDS011;57623;53.608;10.004;2022-11-15T14:11:18;11.70;;;10.43;;
1577;SDS011;57623;53.608;10.004;2022-11-15T14:14:12;11.30;;;10.20;;
1577;SDS011;57623;53.608;10.004;2022-11-15T14:17:02;12.03;;;10.83;;
1577;SDS011;57623;53.608;10.004;2022-11-15T14:19:50;11.43;;;10.33;;
1577;SDS011;57623;53.608;10.004;2022-11-15T14:22:51;11.40;;;10.30;;
1577;SDS011;57623;53.608;10.004;2022-11-15T14:25:51;11.40;;;10.40;;
1577;SDS011;57623;53.608;10.004;2022-11-15T14:28:40;12.53;;;10.50;;
1577;SDS011;57623;53.608;10.004;2022-11-15T14:31:30;12.27;;;10.00;;
1577;SDS011;57623;53.608;10.004;2022-11-15T14:34:31;11.53;;;10.10;;
1577;SDS011;57623;53.608;10.004;2022-11-15T14:37:25;10.40;;;9.40;;
1577;SDS011;57623;53.608;10.004;2022-11-15T14:40:17;10.50;;;9.40;;
1577;SDS011;57623;53.608;10.004;2022-11-15T14:43:11;12.73;;;10.30;;
1577;SDS011;57623;53.608;10.004;2022-11-15T14:46:00;10.50;;;9.50;;
1577;SDS011;57623;53.608;10.004;2022-11-15T14:48:54;12.50;;;10.77;;
1577;SDS011;57623;53.608;10.004;2022-11-15T14:51:43;11.87;;;10.67;;
1577;SDS011;57623;53.608;10.004;2022-11-15T14:54:35;10.70;;;9.70;;
1577;SDS011;57623;53.608;10.004;2022-11-15T14:57:31;12.40;;;9.97;;
1577;SDS011;57623;53.608;10.004;2022-11-15T15:00:21;11.33;;;10.23;;
1577;SDS011;57623;53.608;10.004;2022-11-15T15:03:20;12.03;;;10.00;;
1577;SDS011;57623;53.608;10.004;2022-11-15T15:09:19;12.17;;;11.07;;
1577;SDS011;57623;53.608;10.004;2022-11-15T15:12:17;11.87;;;10.53;;
1577;SDS011;57623;53.608;10.004;2022-11-15T15:15:16;10.70;;;9.60;;
1577;SDS011;57623;53.608;10.004;2022-11-15T15:18:15;10.77;;;9.77;;
1577;SDS011;57623;53.608;10.004;2022-11-15T15:21:14;10.87;;;9.57;;
1577;SDS011;57623;53.608;10.004;2022-11-15T15:24:25;10.60;;;9.70;;
1577;SDS011;57623;53.608;10.004;2022-11-15T15:27:16;11.70;;;10.50;;
1577;SDS011;57623;53.608;10.004;2022-11-15T15:30:12;11.00;;;10.00;;
1577;SDS011;57623;53.608;10.004;2022-11-15T15:33:05;14.10;;;11.57;;
1577;SDS011;57623;53.608;10.004;2022-11-15T15:35:53;12.00;;;10.30;;
1577;SDS011;57623;53.608;10.004;2022-11-15T15:38:44;10.80;;;9.23;;
1577;SDS011;57623;53.608;10.004;2022-11-15T15:41:33;11.00;;;9.90;;
1577;SDS011;57623;53.608;10.004;2022-11-15T15:44:23;10.67;;;9.57;;
1577;SDS011;57623;53.608;10.004;2022-11-15T15:47:15;10.37;;;9.37;;
1577;SDS011;57623;53.608;10.004;2022-11-15T15:50:20;11.00;;;9.80;;
1577;SDS011;57623;53.608;10.004;2022-11-15T15:53:14;10.67;;;9.67;;
1577;SDS011;57623;53.608;10.004;2022-11-15T15:56:08;11.50;;;10.40;;
1577;SDS011;57623;53.608;10.004;2022-11-15T15:59:05;11.17;;;10.07;;
1577;SDS011;57623;53.608;10.004;2022-11-15T16:01:59;14.97;;;9.50;;
1577;SDS011;57623;53.608;10.004;2022-11-15T16:04:50;9.93;;;8.93;;
1577;SDS011;57623;53.608;10.004;2022-11-15T16:07:40;18.43;;;10.37;;
1577;SDS011;57623;53.608;10.004;2022-11-15T16:10:32;11.50;;;10.30;;
1577;SDS011;57623;53.608;10.004;2022-11-15T16:13:32;11.60;;;10.50;;
1577;SDS011;57623;53.608;10.004;2022-11-15T16:16:23;11.07;;;9.97;;
1577;SDS011;57623;53.608;10.004;2022-11-15T16:19:14;11.87;;;9.90;;
1577;SDS011;57623;53.608;10.004;2022-11-15T16:22:04;11.40;;;10.23;;
1577;SDS011;57623;53.608;10.004;2022-11-15T16:24:57;11.63;;;10.37;;
1577;SDS011;57623;53.608;10.004;2022-11-15T16:27:47;10.77;;;9.67;;
1577;SDS011;57623;53.608;10.004;2022-11-15T16:30:36;11.80;;;10.47;;
1577;SDS011;57623;53.608;10.004;2022-11-15T16:33:29;11.40;;;10.30;;
1577;SDS011;57623;53.608;10.004;2022-11-15T16:36:21;13.00;;;11.67;;
1577;SDS011;57623;53.608;10.004;2022-11-15T16:39:17;12.40;;;11.10;;
1577;SDS011;57623;53.608;10.004;2022-11-15T16:42:16;14.87;;;13.33;;
1577;SDS011;57623;53.608;10.004;2022-11-15T16:45:10;15.07;;;13.50;;
1577;SDS011;57623;53.608;10.004;2022-11-15T16:48:02;13.03;;;10.40;;
1577;SDS011;57623;53.608;10.004;2022-11-15T16:50:56;11.83;;;10.70;;
1577;SDS011;57623;53.608;10.004;2022-11-15T16:53:51;11.13;;;10.03;;
1577;SDS011;57623;53.608;10.004;2022-11-15T16:56:46;11.50;;;10.30;;
1577;SDS011;57623;53.608;10.004;2022-11-15T16:59:43;14.50;;;11.60;;
1577;SDS011;57623;53.608;10.004;2022-11-15T17:02:36;12.03;;;10.83;;
1577;SDS011;57623;53.608;10.004;2022-11-15T17:05:29;12.73;;;10.87;;
1577;SDS011;57623;53.608;10.004;2022-11-15T17:08:19;12.47;;;10.43;;
1577;SDS011;57623;53.608;10.004;2022-11-15T17:11:10;12.30;;;11.20;;
1577;SDS011;57623;53.608;10.004;2022-11-15T17:14:10;12.30;;;10.77;;
1577;SDS011;57623;53.608;10.004;2022-11-15T17:17:00;12.00;;;10.80;;